Darstellungsparameter: Aktuell verwendete Einstellungen:
Skalierung der Graphiken ... ?
xyx+y,   Skalierungsfaktor:      Skalierung: Modus: x, Faktor: 1
Darstellungszeitraum ... ?
Vom - - bis: - -   Zeitraum: 07.09.2013 - 08.09.2013
Min/Max/Avg-Anzeige ... ?
Zeige MMA aktuell
Zeige MMA Monat
Zeige MMA alles
Zeige --A aktuell
Zeige --A Monat
Zeige --A alles
Keine MMA-Anzeige
MMA:
Average (ber die Originaldaten)
MMA-Basis: 07.09.2013 - 08.09.2013
Quicknavigation für Darstellung... ?
Tage:      1T, 2T, 3T, 5T -1T -2T -3T -5T +1T +2T +3T +5T
Wochen: 1W, 2W, 3W -1W -2W -3W +1W +2W +3W
Monate: 1M, 3M, 6M -1M -3M -6M +1M +3M +6M
Jahre:    1J, 3J, 5J, 10J -1J -3J -5J -10J +1J +3J +5J +10J
Nutze für die Darstellung ... ?
Originaldaten oder Mittelwerte auf ...
Stundenbasis Tagesbasis Wochenbasis
Monatsbasis Jahresbasis      Datenbasis: Original-Daten
Darstellen als:
Statistik (Auto) Statistik J:M      Darstellung:
Zur Graphik,    zurück zur Übersicht aller Sensoren.
 
Tabellarische Datenbersicht: ?
 
Sensor: Nr:Datum:Temp:Abs-Feuchte:Windchill:Wind:
Aussen-T/F 1 07-09-2013 00:00:00 19.3 C 13.77 g/m*3 19.3 C 3.2 km/h
2 07-09-2013 00:05:00 19.3 C 13.77 g/m*3 19.3 C 3.2 km/h
3 07-09-2013 00:10:00 19.2 C 13.69 g/m*3 19.2 C 0 km/h
4 07-09-2013 00:15:00 19.1 C 13.61 g/m*3 19.1 C 0 km/h
5 07-09-2013 00:20:00 19 C 13.69 g/m*3 19 C 0 km/h
6 07-09-2013 00:25:00 18.8 C 13.69 g/m*3 18.8 C 0 km/h
7 07-09-2013 00:30:00 18.8 C 13.69 g/m*3 18.8 C 0 km/h
8 07-09-2013 00:35:00 18.7 C 13.77 g/m*3 18.7 C 0 km/h
9 07-09-2013 00:40:00 18.6 C 13.69 g/m*3 18.6 C 0 km/h
10 07-09-2013 00:45:00 18.4 C 13.53 g/m*3 18.4 C 0 km/h
11 07-09-2013 00:50:00 18.4 C 13.84 g/m*3 18.4 C 0 km/h
12 07-09-2013 00:55:00 18.3 C 13.6 g/m*3 18.3 C 0 km/h
13 07-09-2013 01:00:00 18.2 C 13.68 g/m*3 18.2 C 0 km/h
14 07-09-2013 01:05:00 18.1 C 13.6 g/m*3 18.1 C 0 km/h
15 07-09-2013 01:10:00 18.1 C 13.6 g/m*3 18.1 C 0 km/h
16 07-09-2013 01:15:00 18.1 C 13.6 g/m*3 18.1 C 0 km/h
17 07-09-2013 01:20:00 18 C 13.52 g/m*3 18 C 0 km/h
18 07-09-2013 01:25:00 17.9 C 13.44 g/m*3 17.9 C 0 km/h
19 07-09-2013 01:30:00 17.8 C 13.36 g/m*3 17.8 C 0 km/h
20 07-09-2013 01:35:00 17.8 C 13.36 g/m*3 17.8 C 0 km/h
21 07-09-2013 01:40:00 17.8 C 13.51 g/m*3 17.8 C 0 km/h
22 07-09-2013 01:45:00 17.8 C 13.51 g/m*3 17.8 C 0 km/h
23 07-09-2013 01:50:00 17.7 C 13.28 g/m*3 17.7 C 0 km/h
24 07-09-2013 01:55:00 17.7 C 13.28 g/m*3 17.7 C 0 km/h
25 07-09-2013 02:00:00 17.6 C 13.35 g/m*3 17.6 C 0 km/h
Sensor: Nr:Datum:Temp:Abs-Feuchte:Windchill:Wind:
Aussen-T/F 26 07-09-2013 02:05:00 17.5 C 13.27 g/m*3 17.5 C 0 km/h
27 07-09-2013 02:10:00 17.6 C 13.35 g/m*3 17.6 C 0 km/h
28 07-09-2013 02:15:00 17.6 C 13.2 g/m*3 17.6 C 0 km/h
29 07-09-2013 02:20:00 17.5 C 13.27 g/m*3 17.5 C 0 km/h
30 07-09-2013 02:25:00 17.4 C 13.04 g/m*3 17.4 C 0 km/h
31 07-09-2013 02:30:00 17.3 C 13.11 g/m*3 17.3 C 0 km/h
32 07-09-2013 02:35:00 17.3 C 13.11 g/m*3 17.3 C 0 km/h
33 07-09-2013 02:40:00 17.2 C 13.03 g/m*3 17.2 C 0 km/h
34 07-09-2013 02:45:00 17.2 C 13.18 g/m*3 17.2 C 0 km/h
35 07-09-2013 02:50:00 17.2 C 13.18 g/m*3 17.2 C 8.1 km/h
36 07-09-2013 02:55:00 17.3 C 13.11 g/m*3 17.3 C 8.1 km/h
37 07-09-2013 03:00:00 17.4 C 13.19 g/m*3 17.4 C 8.1 km/h
38 07-09-2013 03:05:00 17.4 C 13.04 g/m*3 17.4 C 8.1 km/h
39 07-09-2013 03:10:00 17.4 C 13.04 g/m*3 17.4 C 3.2 km/h
40 07-09-2013 03:15:00 17.4 C 13.04 g/m*3 17.4 C 4.8 km/h
41 07-09-2013 03:20:00 17.3 C 12.96 g/m*3 17.3 C 11.3 km/h
42 07-09-2013 03:25:00 17.4 C 12.89 g/m*3 17.4 C 11.3 km/h
43 07-09-2013 03:30:00 17.5 C 12.97 g/m*3 17.5 C 14.5 km/h
44 07-09-2013 03:35:00 17.5 C 12.97 g/m*3 17.5 C 1.6 km/h
45 07-09-2013 03:40:00 17.4 C 13.04 g/m*3 17.4 C 0 km/h
46 07-09-2013 03:45:00 17.3 C 12.96 g/m*3 17.3 C 0 km/h
47 07-09-2013 03:50:00 17.2 C 12.89 g/m*3 17.2 C 0 km/h
48 07-09-2013 03:55:00 17.2 C 12.89 g/m*3 17.2 C 3.2 km/h
49 07-09-2013 04:00:00 17.2 C 12.89 g/m*3 17.2 C 0 km/h
50 07-09-2013 04:05:00 17.3 C 12.96 g/m*3 17.3 C 0 km/h
Sensor: Nr:Datum:Temp:Abs-Feuchte:Windchill:Wind:
Aussen-T/F 51 07-09-2013 04:10:00 17.3 C 12.96 g/m*3 17.3 C 0 km/h
52 07-09-2013 04:15:00 17.2 C 12.89 g/m*3 17.2 C 0 km/h
53 07-09-2013 04:20:00 17.2 C 12.89 g/m*3 17.2 C 0 km/h
54 07-09-2013 04:25:00 17.1 C 12.81 g/m*3 17.1 C 0 km/h
55 07-09-2013 04:30:00 17.1 C 12.96 g/m*3 17.1 C 0 km/h
56 07-09-2013 04:35:00 17 C 12.88 g/m*3 17 C 0 km/h
57 07-09-2013 04:40:00 16.9 C 12.94 g/m*3 16.9 C 0 km/h
58 07-09-2013 04:45:00 16.9 C 12.94 g/m*3 16.9 C 0 km/h
59 07-09-2013 04:50:00 17 C 13.02 g/m*3 17 C 6.4 km/h
60 07-09-2013 04:55:00 17.1 C 12.96 g/m*3 17.1 C 3.2 km/h
61 07-09-2013 05:00:00 17.1 C 12.96 g/m*3 17.1 C 0 km/h
62 07-09-2013 05:05:00 17.1 C 12.96 g/m*3 17.1 C 1.6 km/h
63 07-09-2013 05:10:00 17.2 C 12.89 g/m*3 17.2 C 8.1 km/h
64 07-09-2013 05:15:00 17.3 C 12.96 g/m*3 17.3 C 4.8 km/h
65 07-09-2013 05:20:00 17.4 C 12.89 g/m*3 17.4 C 4.8 km/h
66 07-09-2013 05:25:00 17.4 C 12.89 g/m*3 17.4 C 4.8 km/h
67 07-09-2013 05:30:00 17.3 C 12.96 g/m*3 17.3 C 3.2 km/h
68 07-09-2013 05:35:00 17.2 C 12.89 g/m*3 17.2 C 0 km/h
69 07-09-2013 05:40:00 17.1 C 12.81 g/m*3 17.1 C 0 km/h
70 07-09-2013 05:45:00 17 C 12.73 g/m*3 17 C 0 km/h
71 07-09-2013 05:50:00 17 C 12.88 g/m*3 17 C 3.2 km/h
72 07-09-2013 05:55:00 16.9 C 12.8 g/m*3 16.9 C 0 km/h
73 07-09-2013 06:00:00 16.8 C 12.72 g/m*3 16.8 C 0 km/h
74 07-09-2013 06:05:00 16.7 C 12.65 g/m*3 16.7 C 0 km/h
75 07-09-2013 06:10:00 16.6 C 12.71 g/m*3 16.6 C 3.2 km/h
Sensor: Nr:Datum:Temp:Abs-Feuchte:Windchill:Wind:
Aussen-T/F 76 07-09-2013 06:15:00 16.6 C 12.71 g/m*3 16.6 C 0 km/h
77 07-09-2013 06:20:00 16.6 C 12.86 g/m*3 16.6 C 0 km/h
78 07-09-2013 06:25:00 16.6 C 12.86 g/m*3 16.6 C 0 km/h
79 07-09-2013 06:30:00 16.6 C 12.86 g/m*3 16.6 C 0 km/h
80 07-09-2013 06:35:00 16.6 C 12.86 g/m*3 16.6 C 0 km/h
81 07-09-2013 06:40:00 16.8 C 13.01 g/m*3 16.8 C 3.2 km/h
82 07-09-2013 06:45:00 16.9 C 12.94 g/m*3 16.9 C 6.4 km/h
83 07-09-2013 06:50:00 17.1 C 12.96 g/m*3 17.1 C 4.8 km/h
84 07-09-2013 06:55:00 17.2 C 13.03 g/m*3 17.2 C 4.8 km/h
85 07-09-2013 07:00:00 17.2 C 13.03 g/m*3 17.2 C 0 km/h
86 07-09-2013 07:05:00 17.2 C 13.18 g/m*3 17.2 C 4.8 km/h
87 07-09-2013 07:10:00 17.2 C 13.18 g/m*3 17.2 C 0 km/h
88 07-09-2013 07:15:00 17.2 C 13.33 g/m*3 17.2 C 0 km/h
89 07-09-2013 07:20:00 17.2 C 13.62 g/m*3 17.2 C 0 km/h
90 07-09-2013 07:25:00 17.2 C 13.62 g/m*3 17.2 C 0 km/h
91 07-09-2013 07:30:00 17.1 C 13.54 g/m*3 17.1 C 0 km/h
92 07-09-2013 07:35:00 17.1 C 13.68 g/m*3 17.1 C 0 km/h
93 07-09-2013 07:40:00 17.1 C 13.54 g/m*3 17.1 C 6.4 km/h
94 07-09-2013 07:45:00 17 C 13.46 g/m*3 17 C 3.2 km/h
95 07-09-2013 07:50:00 17 C 13.46 g/m*3 17 C 1.6 km/h
96 07-09-2013 07:55:00 17 C 13.6 g/m*3 17 C 1.6 km/h
97 07-09-2013 08:00:00 17 C 13.6 g/m*3 17 C 1.6 km/h
98 07-09-2013 08:05:00 17 C 13.6 g/m*3 17 C 0 km/h
99 07-09-2013 08:10:00 17 C 13.6 g/m*3 17 C 0 km/h
100 07-09-2013 08:15:00 17 C 13.6 g/m*3 17 C 1.6 km/h
Sensor: Nr:Datum:Temp:Abs-Feuchte:Windchill:Wind:
Aussen-T/F 101 07-09-2013 08:20:00 16.9 C 13.52 g/m*3 16.9 C 0 km/h
102 07-09-2013 08:25:00 16.9 C 13.52 g/m*3 16.9 C 0 km/h
103 07-09-2013 08:30:00 16.8 C 13.58 g/m*3 16.8 C 0 km/h
104 07-09-2013 08:35:00 16.8 C 13.58 g/m*3 16.8 C 0 km/h
105 07-09-2013 08:40:00 16.8 C 13.58 g/m*3 16.8 C 0 km/h
106 07-09-2013 08:45:00 16.8 C 13.58 g/m*3 16.8 C 0 km/h
107 07-09-2013 08:50:00 16.8 C 13.58 g/m*3 16.8 C 0 km/h
108 07-09-2013 08:55:00 16.8 C 13.73 g/m*3 16.8 C 0 km/h
109 07-09-2013 09:00:00 16.8 C 13.73 g/m*3 16.8 C 0 km/h
110 07-09-2013 09:05:00 16.8 C 13.73 g/m*3 16.8 C 0 km/h
111 07-09-2013 09:10:00 16.8 C 13.73 g/m*3 16.8 C 0 km/h
112 07-09-2013 09:15:00 16.9 C 13.81 g/m*3 16.9 C 0 km/h
113 07-09-2013 09:20:00 16.9 C 13.81 g/m*3 16.9 C 0 km/h
114 07-09-2013 09:25:00 16.9 C 13.81 g/m*3 16.9 C 0 km/h
115 07-09-2013 09:30:00 17 C 13.89 g/m*3 17 C 0 km/h
116 07-09-2013 09:35:00 17 C 13.89 g/m*3 17 C 0 km/h
117 07-09-2013 09:40:00 17 C 13.89 g/m*3 17 C 0 km/h
118 07-09-2013 09:45:00 17 C 13.89 g/m*3 17 C 0 km/h
119 07-09-2013 09:50:00 17 C 13.89 g/m*3 17 C 0 km/h
120 07-09-2013 09:55:00 17.1 C 13.97 g/m*3 17.1 C 0 km/h
121 07-09-2013 10:00:00 17.1 C 13.97 g/m*3 17.1 C 0 km/h
122 07-09-2013 10:05:00 17.2 C 14.06 g/m*3 17.2 C 0 km/h
123 07-09-2013 10:10:00 17.3 C 14.29 g/m*3 17.3 C 0 km/h
124 07-09-2013 10:15:00 17.4 C 14.38 g/m*3 17.4 C 0 km/h
125 07-09-2013 10:20:00 17.6 C 14.55 g/m*3 17.6 C 0 km/h
Sensor: Nr:Datum:Temp:Abs-Feuchte:Windchill:Wind:
Aussen-T/F 126 07-09-2013 10:25:00 17.6 C 14.55 g/m*3 17.6 C 0 km/h
127 07-09-2013 10:30:00 17.7 C 14.64 g/m*3 17.7 C 0 km/h
128 07-09-2013 10:35:00 17.7 C 14.64 g/m*3 17.7 C 0 km/h
129 07-09-2013 10:40:00 17.8 C 14.72 g/m*3 17.8 C 0 km/h
130 07-09-2013 10:45:00 17.9 C 14.66 g/m*3 17.9 C 0 km/h
131 07-09-2013 10:50:00 18 C 14.75 g/m*3 18 C 0 km/h
132 07-09-2013 10:55:00 18.2 C 15.08 g/m*3 18.2 C 0 km/h
133 07-09-2013 11:00:00 18.4 C 15.26 g/m*3 18.4 C 3.2 km/h
134 07-09-2013 11:05:00 18.3 C 15.01 g/m*3 18.3 C 1.6 km/h
135 07-09-2013 11:10:00 18.3 C 14.85 g/m*3 18.3 C 0 km/h
136 07-09-2013 11:15:00 18.4 C 15.1 g/m*3 18.4 C 0 km/h
137 07-09-2013 11:20:00 18.7 C 15.21 g/m*3 18.7 C 3.2 km/h
138 07-09-2013 11:25:00 18.8 C 15.3 g/m*3 18.8 C 0 km/h
139 07-09-2013 11:30:00 18.8 C 15.14 g/m*3 18.8 C 3.2 km/h
140 07-09-2013 11:35:00 18.9 C 15.07 g/m*3 18.9 C 0 km/h
141 07-09-2013 11:40:00 19.1 C 15.25 g/m*3 19.1 C 0 km/h
142 07-09-2013 11:45:00 19.2 C 15.34 g/m*3 19.2 C 1.6 km/h
143 07-09-2013 11:50:00 19.4 C 15.52 g/m*3 19.4 C 4.8 km/h
144 07-09-2013 11:55:00 19.4 C 15.35 g/m*3 19.4 C 3.2 km/h
145 07-09-2013 12:00:00 19.5 C 15.44 g/m*3 19.5 C 6.4 km/h
146 07-09-2013 12:05:00 19.6 C 15.53 g/m*3 19.6 C 0 km/h
147 07-09-2013 12:10:00 19.7 C 15.79 g/m*3 19.7 C 0 km/h
148 07-09-2013 12:15:00 19.7 C 15.79 g/m*3 19.7 C 0 km/h
149 07-09-2013 12:20:00 19.7 C 15.28 g/m*3 19.7 C 1.6 km/h
150 07-09-2013 12:25:00 20 C 15.55 g/m*3 20 C 1.6 km/h
Sensor: Nr:Datum:Temp:Abs-Feuchte:Windchill:Wind:
Aussen-T/F 151 07-09-2013 12:30:00 20.2 C 15.39 g/m*3 20.2 C 0 km/h
152 07-09-2013 12:35:00 20.5 C 15.84 g/m*3 20.5 C 0 km/h
153 07-09-2013 12:40:00 20.6 C 16.11 g/m*3 20.6 C 0 km/h
154 07-09-2013 12:45:00 20.7 C 15.3 g/m*3 20.7 C 3.2 km/h
155 07-09-2013 12:50:00 20.8 C 15.75 g/m*3 20.8 C 1.6 km/h
156 07-09-2013 12:55:00 20.8 C 15.93 g/m*3 20.8 C 0 km/h
157 07-09-2013 13:00:00 20.7 C 16.02 g/m*3 20.7 C 0 km/h
158 07-09-2013 13:05:00 20.7 C 16.38 g/m*3 20.7 C 0 km/h
159 07-09-2013 13:10:00 20.6 C 16.11 g/m*3 20.6 C 0 km/h
160 07-09-2013 13:15:00 20.7 C 15.3 g/m*3 20.7 C 0 km/h
161 07-09-2013 13:20:00 21.1 C 16.21 g/m*3 21.1 C 1.6 km/h
162 07-09-2013 13:25:00 21.4 C 16.12 g/m*3 21.4 C 3.2 km/h
163 07-09-2013 13:30:00 21.6 C 16.31 g/m*3 21.6 C 1.6 km/h
164 07-09-2013 13:35:00 21.3 C 16.22 g/m*3 21.3 C 0 km/h
165 07-09-2013 13:40:00 21.1 C 16.4 g/m*3 21.1 C 0 km/h
166 07-09-2013 13:45:00 21.2 C 16.12 g/m*3 21.2 C 1.6 km/h
167 07-09-2013 13:50:00 21.7 C 16.79 g/m*3 21.7 C 1.6 km/h
168 07-09-2013 13:55:00 22.1 C 16.79 g/m*3 22.1 C 1.6 km/h
169 07-09-2013 14:00:00 22.3 C 16.19 g/m*3 22.3 C 3.2 km/h
170 07-09-2013 14:05:00 22.3 C 16.39 g/m*3 22.3 C 4.8 km/h
171 07-09-2013 14:10:00 22.3 C 16.78 g/m*3 22.3 C 1.6 km/h
172 07-09-2013 14:15:00 22.1 C 16.79 g/m*3 22.1 C 0 km/h
173 07-09-2013 14:20:00 21.9 C 16.79 g/m*3 21.9 C 3.2 km/h
174 07-09-2013 14:25:00 22.1 C 16.4 g/m*3 22.1 C 1.6 km/h
175 07-09-2013 14:30:00 22.3 C 16.59 g/m*3 22.3 C 4.8 km/h
Sensor: Nr:Datum:Temp:Abs-Feuchte:Windchill:Wind:
Aussen-T/F 176 07-09-2013 14:35:00 22.4 C 16.48 g/m*3 22.4 C 1.6 km/h
177 07-09-2013 14:40:00 22.3 C 16.98 g/m*3 22.3 C 0 km/h
178 07-09-2013 14:45:00 22.1 C 16.98 g/m*3 22.1 C 1.6 km/h
179 07-09-2013 14:50:00 21.8 C 16.88 g/m*3 21.8 C 1.6 km/h
180 07-09-2013 14:55:00 21.5 C 16.78 g/m*3 21.5 C 0 km/h
181 07-09-2013 15:00:00 21.2 C 16.68 g/m*3 21.2 C 0 km/h
182 07-09-2013 15:05:00 21 C 16.67 g/m*3 21 C 0 km/h
183 07-09-2013 15:10:00 20.9 C 16.76 g/m*3 20.9 C 0 km/h
184 07-09-2013 15:15:00 20.8 C 16.66 g/m*3 20.8 C 0 km/h
185 07-09-2013 15:20:00 20.8 C 16.84 g/m*3 20.8 C 0 km/h
186 07-09-2013 15:25:00 20.7 C 16.74 g/m*3 20.7 C 0 km/h
187 07-09-2013 15:30:00 20.8 C 16.84 g/m*3 20.8 C 0 km/h
188 07-09-2013 15:35:00 21 C 17.22 g/m*3 21 C 0 km/h
189 07-09-2013 15:40:00 21.1 C 17.14 g/m*3 21.1 C 0 km/h
190 07-09-2013 15:45:00 21 C 16.85 g/m*3 21 C 0 km/h
191 07-09-2013 15:50:00 20.8 C 16.66 g/m*3 20.8 C 0 km/h
192 07-09-2013 15:55:00 20.8 C 16.84 g/m*3 20.8 C 0 km/h
193 07-09-2013 16:00:00 20.8 C 16.84 g/m*3 20.8 C 0 km/h
194 07-09-2013 16:05:00 20.8 C 16.84 g/m*3 20.8 C 0 km/h
195 07-09-2013 16:10:00 20.8 C 16.84 g/m*3 20.8 C 0 km/h
196 07-09-2013 16:15:00 20.8 C 16.84 g/m*3 20.8 C 0 km/h
197 07-09-2013 16:20:00 20.9 C 17.12 g/m*3 20.9 C 0 km/h
198 07-09-2013 16:25:00 21 C 16.85 g/m*3 21 C 3.2 km/h
199 07-09-2013 16:30:00 21.4 C 16.69 g/m*3 21.4 C 3.2 km/h
200 07-09-2013 16:35:00 21.7 C 16.21 g/m*3 21.7 C 4.8 km/h
Sensor: Nr:Datum:Temp:Abs-Feuchte:Windchill:Wind:
Aussen-T/F 201 07-09-2013 16:40:00 21.8 C 17.08 g/m*3 21.8 C 0 km/h
202 07-09-2013 16:45:00 21.3 C 16.96 g/m*3 21.3 C 0 km/h
203 07-09-2013 16:50:00 21 C 16.85 g/m*3 21 C 0 km/h
204 07-09-2013 16:55:00 20.8 C 16.66 g/m*3 20.8 C 0 km/h
205 07-09-2013 17:00:00 20.6 C 16.64 g/m*3 20.6 C 1.6 km/h
206 07-09-2013 17:05:00 20.4 C 16.45 g/m*3 20.4 C 3.2 km/h
207 07-09-2013 17:10:00 20.3 C 16.18 g/m*3 20.3 C 1.6 km/h
208 07-09-2013 17:15:00 20.2 C 16.26 g/m*3 20.2 C 3.2 km/h
209 07-09-2013 17:20:00 20.1 C 16.34 g/m*3 20.1 C 0 km/h
210 07-09-2013 17:25:00 20.1 C 16.34 g/m*3 20.1 C 0 km/h
211 07-09-2013 17:30:00 20.1 C 16.51 g/m*3 20.1 C 1.6 km/h
212 07-09-2013 17:35:00 19.9 C 16.15 g/m*3 19.9 C 1.6 km/h
213 07-09-2013 17:40:00 19.8 C 16.06 g/m*3 19.8 C 0 km/h
214 07-09-2013 17:45:00 19.8 C 16.23 g/m*3 19.8 C 3.2 km/h
215 07-09-2013 17:50:00 19.5 C 15.27 g/m*3 19.5 C 12.9 km/h
216 07-09-2013 17:55:00 19.4 C 15.35 g/m*3 19.4 C 1.6 km/h
217 07-09-2013 18:00:00 19.2 C 15.34 g/m*3 19.2 C 3.2 km/h
218 07-09-2013 18:05:00 19.1 C 14.92 g/m*3 19.1 C 12.9 km/h
219 07-09-2013 18:10:00 19 C 14.83 g/m*3 19 C 1.6 km/h
220 07-09-2013 18:15:00 18.9 C 14.9 g/m*3 18.9 C 9.7 km/h
221 07-09-2013 18:20:00 18.9 C 15.07 g/m*3 18.9 C 3.2 km/h
222 07-09-2013 18:25:00 18.8 C 15.14 g/m*3 18.8 C 3.2 km/h
223 07-09-2013 18:30:00 18.7 C 14.89 g/m*3 18.7 C 8.1 km/h
224 07-09-2013 18:35:00 18.8 C 15.14 g/m*3 18.8 C 1.6 km/h
225 07-09-2013 18:40:00 18.8 C 15.14 g/m*3 18.8 C 3.2 km/h
Sensor: Nr:Datum:Temp:Abs-Feuchte:Windchill:Wind:
Aussen-T/F 226 07-09-2013 18:45:00 18.7 C 15.05 g/m*3 18.7 C 4.8 km/h
227 07-09-2013 18:50:00 18.6 C 14.96 g/m*3 18.6 C 3.2 km/h
228 07-09-2013 18:55:00 18.6 C 15.12 g/m*3 18.6 C 0 km/h
229 07-09-2013 19:00:00 18.6 C 15.12 g/m*3 18.6 C 1.6 km/h
230 07-09-2013 19:05:00 18.5 C 15.03 g/m*3 18.5 C 0 km/h
231 07-09-2013 19:10:00 18.4 C 14.94 g/m*3 18.4 C 1.6 km/h
232 07-09-2013 19:15:00 18.3 C 14.85 g/m*3 18.3 C 0 km/h
233 07-09-2013 19:20:00 18.2 C 14.77 g/m*3 18.2 C 0 km/h
234 07-09-2013 19:25:00 18.1 C 14.68 g/m*3 18.1 C 0 km/h
235 07-09-2013 19:30:00 18 C 14.59 g/m*3 18 C 0 km/h
236 07-09-2013 19:35:00 17.9 C 14.5 g/m*3 17.9 C 0 km/h
237 07-09-2013 19:40:00 17.9 C 14.5 g/m*3 17.9 C 0 km/h
238 07-09-2013 19:45:00 17.9 C 14.5 g/m*3 17.9 C 0 km/h
239 07-09-2013 19:50:00 17.8 C 14.57 g/m*3 17.8 C 0 km/h
240 07-09-2013 19:55:00 17.8 C 14.57 g/m*3 17.8 C 0 km/h
241 07-09-2013 20:00:00 17.8 C 14.57 g/m*3 17.8 C 0 km/h
242 07-09-2013 20:05:00 17.8 C 14.57 g/m*3 17.8 C 0 km/h
243 07-09-2013 20:10:00 17.8 C 14.57 g/m*3 17.8 C 0 km/h
244 07-09-2013 20:15:00 17.7 C 14.48 g/m*3 17.7 C 0 km/h
245 07-09-2013 20:20:00 17.7 C 14.48 g/m*3 17.7 C 0 km/h
246 07-09-2013 20:25:00 17.7 C 14.48 g/m*3 17.7 C 0 km/h
247 07-09-2013 20:30:00 17.7 C 14.48 g/m*3 17.7 C 0 km/h
248 07-09-2013 20:35:00 17.6 C 14.4 g/m*3 17.6 C 11.3 km/h
249 07-09-2013 20:40:00 17.6 C 14.25 g/m*3 17.6 C 6.4 km/h
250 07-09-2013 20:45:00 17.6 C 14.1 g/m*3 17.6 C 8.1 km/h
Sensor: Nr:Datum:Temp:Abs-Feuchte:Windchill:Wind:
Aussen-T/F 251 07-09-2013 20:50:00 17.6 C 13.95 g/m*3 17.6 C 4.8 km/h
252 07-09-2013 20:55:00 17.6 C 13.95 g/m*3 17.6 C 4.8 km/h
253 07-09-2013 21:00:00 17.6 C 13.8 g/m*3 17.6 C 6.4 km/h
254 07-09-2013 21:05:00 17.7 C 13.88 g/m*3 17.7 C 6.4 km/h
255 07-09-2013 21:10:00 17.6 C 13.65 g/m*3 17.6 C 4.8 km/h
256 07-09-2013 21:15:00 17.6 C 13.8 g/m*3 17.6 C 1.6 km/h
257 07-09-2013 21:20:00 17.6 C 13.8 g/m*3 17.6 C 3.2 km/h
258 07-09-2013 21:25:00 17.6 C 13.8 g/m*3 17.6 C 0 km/h
259 07-09-2013 21:30:00 17.5 C 13.87 g/m*3 17.5 C 0 km/h
260 07-09-2013 21:35:00 17.4 C 13.93 g/m*3 17.4 C 0 km/h
261 07-09-2013 21:40:00 17.3 C 13.85 g/m*3 17.3 C 3.2 km/h
262 07-09-2013 21:45:00 17.3 C 13.85 g/m*3 17.3 C 0 km/h
263 07-09-2013 21:50:00 17.2 C 13.91 g/m*3 17.2 C 0 km/h
264 07-09-2013 21:55:00 17.2 C 13.91 g/m*3 17.2 C 0 km/h
265 07-09-2013 22:00:00 17.2 C 13.91 g/m*3 17.2 C 3.2 km/h
266 07-09-2013 22:05:00 17.1 C 13.68 g/m*3 17.1 C 4.8 km/h
267 07-09-2013 22:10:00 17.1 C 13.68 g/m*3 17.1 C 0 km/h
268 07-09-2013 22:15:00 17.2 C 13.77 g/m*3 17.2 C 0 km/h
269 07-09-2013 22:20:00 17.1 C 13.83 g/m*3 17.1 C 0 km/h
270 07-09-2013 22:25:00 17.1 C 13.83 g/m*3 17.1 C 0 km/h
271 07-09-2013 22:30:00 16.9 C 13.52 g/m*3 16.9 C 0 km/h
272 07-09-2013 22:35:00 16.8 C 13.3 g/m*3 16.8 C 1.6 km/h
273 07-09-2013 22:40:00 16.8 C 13.44 g/m*3 16.8 C 0 km/h
274 07-09-2013 22:45:00 16.7 C 13.36 g/m*3 16.7 C 1.6 km/h
275 07-09-2013 22:50:00 16.7 C 13.22 g/m*3 16.7 C 1.6 km/h
Sensor: Nr:Datum:Temp:Abs-Feuchte:Windchill:Wind:
Aussen-T/F 276 07-09-2013 22:55:00 16.6 C 13.28 g/m*3 16.6 C 0 km/h
277 07-09-2013 23:00:00 16.6 C 13.28 g/m*3 16.6 C 0 km/h
278 07-09-2013 23:05:00 16.4 C 13.26 g/m*3 16.4 C 0 km/h
279 07-09-2013 23:10:00 16.3 C 13.18 g/m*3 16.3 C 0 km/h
280 07-09-2013 23:15:00 16.3 C 13.18 g/m*3 16.3 C 0 km/h
281 07-09-2013 23:20:00 16.3 C 13.18 g/m*3 16.3 C 0 km/h
282 07-09-2013 23:25:00 16.2 C 13.24 g/m*3 16.2 C 0 km/h
283 07-09-2013 23:30:00 16.3 C 13.32 g/m*3 16.3 C 0 km/h
284 07-09-2013 23:35:00 16.3 C 13.32 g/m*3 16.3 C 1.6 km/h
285 07-09-2013 23:40:00 16.3 C 13.32 g/m*3 16.3 C 0 km/h
286 07-09-2013 23:45:00 16.2 C 13.24 g/m*3 16.2 C 0 km/h
287 07-09-2013 23:50:00 16.2 C 13.24 g/m*3 16.2 C 0 km/h
288 07-09-2013 23:55:00 16.2 C 13.1 g/m*3 16.2 C 0 km/h
289 08-09-2013 00:00:00 16.2 C 13.24 g/m*3 16.2 C 0 km/h
290 08-09-2013 00:05:00 16.2 C 13.24 g/m*3 16.2 C 0 km/h
291 08-09-2013 00:10:00 16.2 C 13.24 g/m*3 16.2 C 0 km/h
292 08-09-2013 00:15:00 16.1 C 13.02 g/m*3 16.1 C 0 km/h
293 08-09-2013 00:20:00 16.1 C 13.02 g/m*3 16.1 C 0 km/h
294 08-09-2013 00:25:00 16.1 C 13.02 g/m*3 16.1 C 0 km/h
295 08-09-2013 00:30:00 16.1 C 13.16 g/m*3 16.1 C 0 km/h
296 08-09-2013 00:35:00 16 C 13.08 g/m*3 16 C 0 km/h
297 08-09-2013 00:40:00 16 C 13.08 g/m*3 16 C 0 km/h
298 08-09-2013 00:45:00 16 C 13.08 g/m*3 16 C 1.6 km/h
299 08-09-2013 00:50:00 16 C 13.08 g/m*3 16 C 0 km/h
300 08-09-2013 00:55:00 15.9 C 13 g/m*3 15.9 C 0 km/h
Sensor: Nr:Datum:Temp:Abs-Feuchte:Windchill:Wind:
Aussen-T/F 301 08-09-2013 01:00:00 15.9 C 13 g/m*3 15.9 C 0 km/h
302 08-09-2013 01:05:00 15.9 C 13 g/m*3 15.9 C 0 km/h
303 08-09-2013 01:10:00 15.9 C 13 g/m*3 15.9 C 0 km/h
304 08-09-2013 01:15:00 15.9 C 13 g/m*3 15.9 C 0 km/h
305 08-09-2013 01:20:00 15.9 C 13 g/m*3 15.9 C 0 km/h
306 08-09-2013 01:25:00 15.8 C 12.92 g/m*3 15.8 C 1.6 km/h
307 08-09-2013 01:30:00 15.9 C 13 g/m*3 15.9 C 0 km/h
308 08-09-2013 01:35:00 15.9 C 13 g/m*3 15.9 C 0 km/h
309 08-09-2013 01:40:00 15.9 C 13 g/m*3 15.9 C 0 km/h
310 08-09-2013 01:45:00 15.9 C 13 g/m*3 15.9 C 0 km/h
311 08-09-2013 01:50:00 15.9 C 13 g/m*3 15.9 C 0 km/h
312 08-09-2013 01:55:00 15.9 C 13 g/m*3 15.9 C 0 km/h
313 08-09-2013 02:00:00 15.9 C 13 g/m*3 15.9 C 0 km/h
314 08-09-2013 02:05:00 15.9 C 13 g/m*3 15.9 C 3.2 km/h
315 08-09-2013 02:10:00 15.9 C 13 g/m*3 15.9 C 3.2 km/h
316 08-09-2013 02:15:00 15.8 C 12.92 g/m*3 15.8 C 4.8 km/h
317 08-09-2013 02:20:00 15.8 C 12.79 g/m*3 15.8 C 4.8 km/h
318 08-09-2013 02:25:00 15.8 C 12.79 g/m*3 15.8 C 4.8 km/h
319 08-09-2013 02:30:00 15.9 C 12.73 g/m*3 15.9 C 4.8 km/h
320 08-09-2013 02:35:00 15.9 C 12.73 g/m*3 15.9 C 4.8 km/h
321 08-09-2013 02:40:00 16 C 12.81 g/m*3 16 C 4.8 km/h
322 08-09-2013 02:45:00 16.1 C 12.88 g/m*3 16.1 C 3.2 km/h
323 08-09-2013 02:50:00 16.1 C 12.75 g/m*3 16.1 C 8.1 km/h
324 08-09-2013 02:55:00 16.1 C 12.75 g/m*3 16.1 C 4.8 km/h
325 08-09-2013 03:00:00 16.1 C 12.75 g/m*3 16.1 C 8.1 km/h
Sensor: Nr:Datum:Temp:Abs-Feuchte:Windchill:Wind:
Aussen-T/F 326 08-09-2013 03:05:00 16.1 C 12.75 g/m*3 16.1 C 4.8 km/h
327 08-09-2013 03:10:00 16.1 C 12.75 g/m*3 16.1 C 1.6 km/h
328 08-09-2013 03:15:00 16.1 C 12.75 g/m*3 16.1 C 0 km/h
329 08-09-2013 03:20:00 16.1 C 12.75 g/m*3 16.1 C 0 km/h
330 08-09-2013 03:25:00 16.1 C 12.88 g/m*3 16.1 C 1.6 km/h
331 08-09-2013 03:30:00 16 C 12.81 g/m*3 16 C 1.6 km/h
332 08-09-2013 03:35:00 16 C 12.81 g/m*3 16 C 0 km/h
333 08-09-2013 03:40:00 16 C 12.94 g/m*3 16 C 0 km/h
334 08-09-2013 03:45:00 16 C 12.81 g/m*3 16 C 0 km/h
335 08-09-2013 03:50:00 15.9 C 12.73 g/m*3 15.9 C 0 km/h
336 08-09-2013 03:55:00 15.9 C 12.87 g/m*3 15.9 C 0 km/h
337 08-09-2013 04:00:00 15.9 C 12.87 g/m*3 15.9 C 0 km/h
338 08-09-2013 04:05:00 15.9 C 12.87 g/m*3 15.9 C 0 km/h
339 08-09-2013 04:10:00 15.9 C 12.87 g/m*3 15.9 C 0 km/h
340 08-09-2013 04:15:00 15.8 C 12.79 g/m*3 15.8 C 1.6 km/h
341 08-09-2013 04:20:00 15.8 C 12.79 g/m*3 15.8 C 4.8 km/h
342 08-09-2013 04:25:00 15.8 C 12.79 g/m*3 15.8 C 6.4 km/h
343 08-09-2013 04:30:00 15.9 C 12.87 g/m*3 15.9 C 6.4 km/h
344 08-09-2013 04:35:00 15.8 C 12.79 g/m*3 15.8 C 4.8 km/h
345 08-09-2013 04:40:00 15.8 C 12.79 g/m*3 15.8 C 6.4 km/h
346 08-09-2013 04:45:00 15.8 C 12.79 g/m*3 15.8 C 0 km/h
347 08-09-2013 04:50:00 15.8 C 12.79 g/m*3 15.8 C 3.2 km/h
348 08-09-2013 04:55:00 15.7 C 12.84 g/m*3 15.7 C 8.1 km/h
349 08-09-2013 05:00:00 15.7 C 12.84 g/m*3 15.7 C 4.8 km/h
350 08-09-2013 05:05:00 15.7 C 12.84 g/m*3 15.7 C 3.2 km/h
Sensor: Nr:Datum:Temp:Abs-Feuchte:Windchill:Wind:
Aussen-T/F 351 08-09-2013 05:10:00 15.7 C 12.84 g/m*3 15.7 C 12.9 km/h
352 08-09-2013 05:15:00 15.6 C 12.77 g/m*3 15.6 C 12.9 km/h
353 08-09-2013 05:20:00 15.5 C 12.69 g/m*3 15.5 C 6.4 km/h
354 08-09-2013 05:25:00 15.5 C 12.69 g/m*3 15.5 C 3.2 km/h
355 08-09-2013 05:30:00 15.5 C 12.69 g/m*3 15.5 C 4.8 km/h
356 08-09-2013 05:35:00 15.5 C 12.69 g/m*3 15.5 C 3.2 km/h
357 08-09-2013 05:40:00 15.6 C 12.9 g/m*3 15.6 C 8.1 km/h
358 08-09-2013 05:45:00 15.6 C 12.9 g/m*3 15.6 C 8.1 km/h
359 08-09-2013 05:50:00 15.4 C 12.61 g/m*3 15.4 C 8.1 km/h
360 08-09-2013 05:55:00 15.3 C 12.54 g/m*3 15.3 C 4.8 km/h
361 08-09-2013 06:00:00 15.2 C 12.46 g/m*3 15.2 C 4.8 km/h
362 08-09-2013 06:05:00 15.1 C 12.39 g/m*3 15.1 C 6.4 km/h
363 08-09-2013 06:10:00 15 C 12.31 g/m*3 15 C 1.6 km/h
364 08-09-2013 06:15:00 14.9 C 12.24 g/m*3 14.9 C 3.2 km/h
365 08-09-2013 06:20:00 14.9 C 12.24 g/m*3 14.9 C 3.2 km/h
366 08-09-2013 06:25:00 14.9 C 12.24 g/m*3 14.9 C 3.2 km/h
367 08-09-2013 06:30:00 14.8 C 12.16 g/m*3 14.8 C 11.3 km/h
368 08-09-2013 06:35:00 14.6 C 11.89 g/m*3 14.6 C 8.1 km/h
369 08-09-2013 06:40:00 14.4 C 11.5 g/m*3 14.4 C 9.7 km/h
370 08-09-2013 06:45:00 14.3 C 11.55 g/m*3 14.3 C 1.6 km/h
371 08-09-2013 06:50:00 14.2 C 11.48 g/m*3 14.2 C 8.1 km/h
372 08-09-2013 06:55:00 14.1 C 11.53 g/m*3 14.1 C 0 km/h
373 08-09-2013 07:00:00 14.1 C 11.53 g/m*3 14.1 C 1.6 km/h
374 08-09-2013 07:05:00 14 C 11.46 g/m*3 14 C 1.6 km/h
375 08-09-2013 07:10:00 13.9 C 11.51 g/m*3 13.9 C 1.6 km/h
Sensor: Nr:Datum:Temp:Abs-Feuchte:Windchill:Wind:
Aussen-T/F 376 08-09-2013 07:15:00 13.9 C 11.39 g/m*3 13.9 C 3.2 km/h
377 08-09-2013 07:20:00 13.8 C 11.32 g/m*3 13.8 C 3.2 km/h
378 08-09-2013 07:25:00 13.8 C 11.44 g/m*3 13.8 C 0 km/h
379 08-09-2013 07:30:00 13.8 C 11.44 g/m*3 13.8 C 3.2 km/h
380 08-09-2013 07:35:00 13.7 C 11.25 g/m*3 13.7 C 4.8 km/h
381 08-09-2013 07:40:00 13.6 C 11.18 g/m*3 13.6 C 8.1 km/h
382 08-09-2013 07:45:00 13.6 C 11.18 g/m*3 13.6 C 6.4 km/h
383 08-09-2013 07:50:00 13.6 C 11.18 g/m*3 13.6 C 3.2 km/h
384 08-09-2013 07:55:00 13.6 C 11.18 g/m*3 13.6 C 0 km/h
385 08-09-2013 08:00:00 13.7 C 11.37 g/m*3 13.7 C 4.8 km/h
386 08-09-2013 08:05:00 13.6 C 11.18 g/m*3 13.6 C 3.2 km/h
387 08-09-2013 08:10:00 13.6 C 11.18 g/m*3 13.6 C 6.4 km/h
388 08-09-2013 08:15:00 13.6 C 11.18 g/m*3 13.6 C 0 km/h
389 08-09-2013 08:20:00 13.6 C 11.18 g/m*3 13.6 C 1.6 km/h
390 08-09-2013 08:25:00 13.6 C 11.3 g/m*3 13.6 C 3.2 km/h
391 08-09-2013 08:30:00 13.6 C 11.18 g/m*3 13.6 C 4.8 km/h
392 08-09-2013 08:35:00 13.5 C 11.11 g/m*3 13.5 C 0 km/h
393 08-09-2013 08:40:00 13.4 C 11.04 g/m*3 13.4 C 4.8 km/h
394 08-09-2013 08:45:00 13.4 C 11.16 g/m*3 13.4 C 0 km/h
395 08-09-2013 08:50:00 13.4 C 11.16 g/m*3 13.4 C 0 km/h
396 08-09-2013 08:55:00 13.4 C 11.16 g/m*3 13.4 C 3.2 km/h
397 08-09-2013 09:00:00 13.6 C 11.3 g/m*3 13.6 C 0 km/h
398 08-09-2013 09:05:00 13.6 C 11.3 g/m*3 13.6 C 0 km/h
399 08-09-2013 09:10:00 13.6 C 11.3 g/m*3 13.6 C 0 km/h
400 08-09-2013 09:15:00 13.6 C 11.3 g/m*3 13.6 C 1.6 km/h
Sensor: Nr:Datum:Temp:Abs-Feuchte:Windchill:Wind:
Aussen-T/F 401 08-09-2013 09:20:00 13.5 C 11.23 g/m*3 13.5 C 1.6 km/h
402 08-09-2013 09:25:00 13.5 C 11.23 g/m*3 13.5 C 0 km/h
403 08-09-2013 09:30:00 13.6 C 11.3 g/m*3 13.6 C 0 km/h
404 08-09-2013 09:35:00 13.6 C 11.3 g/m*3 13.6 C 0 km/h
405 08-09-2013 09:40:00 13.7 C 11.37 g/m*3 13.7 C 0 km/h
406 08-09-2013 09:45:00 13.8 C 11.56 g/m*3 13.8 C 0 km/h
407 08-09-2013 09:50:00 13.8 C 11.56 g/m*3 13.8 C 0 km/h
408 08-09-2013 09:55:00 13.8 C 11.56 g/m*3 13.8 C 1.6 km/h
409 08-09-2013 10:00:00 13.9 C 11.63 g/m*3 13.9 C 1.6 km/h
410 08-09-2013 10:05:00 14.1 C 11.77 g/m*3 14.1 C 0 km/h
411 08-09-2013 10:10:00 14.2 C 11.84 g/m*3 14.2 C 3.2 km/h
412 08-09-2013 10:15:00 14.2 C 11.72 g/m*3 14.2 C 3.2 km/h
413 08-09-2013 10:20:00 14.2 C 11.72 g/m*3 14.2 C 3.2 km/h
414 08-09-2013 10:25:00 14.3 C 11.79 g/m*3 14.3 C 1.6 km/h
415 08-09-2013 10:30:00 14.4 C 11.87 g/m*3 14.4 C 6.4 km/h
416 08-09-2013 10:35:00 14.4 C 11.74 g/m*3 14.4 C 6.4 km/h
417 08-09-2013 10:40:00 14.4 C 11.74 g/m*3 14.4 C 4.8 km/h
418 08-09-2013 10:45:00 14.6 C 11.89 g/m*3 14.6 C 4.8 km/h
419 08-09-2013 10:50:00 14.6 C 11.76 g/m*3 14.6 C 4.8 km/h
420 08-09-2013 10:55:00 14.7 C 11.71 g/m*3 14.7 C 8.1 km/h
421 08-09-2013 11:00:00 14.7 C 11.71 g/m*3 14.7 C 6.4 km/h
422 08-09-2013 11:05:00 14.7 C 11.71 g/m*3 14.7 C 6.4 km/h
423 08-09-2013 11:10:00 14.7 C 11.58 g/m*3 14.7 C 9.7 km/h
424 08-09-2013 11:15:00 14.7 C 11.58 g/m*3 14.7 C 8.1 km/h
425 08-09-2013 11:20:00 14.7 C 11.58 g/m*3 14.7 C 4.8 km/h
Sensor: Nr:Datum:Temp:Abs-Feuchte:Windchill:Wind:
Aussen-T/F 426 08-09-2013 11:25:00 14.7 C 11.58 g/m*3 14.7 C 6.4 km/h
427 08-09-2013 11:30:00 14.7 C 11.58 g/m*3 14.7 C 8.1 km/h
428 08-09-2013 11:35:00 14.7 C 11.58 g/m*3 14.7 C 11.3 km/h
429 08-09-2013 11:40:00 14.8 C 11.65 g/m*3 14.8 C 8.1 km/h
430 08-09-2013 11:45:00 14.9 C 11.73 g/m*3 14.9 C 3.2 km/h
431 08-09-2013 11:50:00 14.9 C 11.73 g/m*3 14.9 C 4.8 km/h
432 08-09-2013 11:55:00 15 C 11.67 g/m*3 15 C 11.3 km/h
433 08-09-2013 12:00:00 15 C 11.54 g/m*3 15 C 8.1 km/h
434 08-09-2013 12:05:00 14.9 C 11.47 g/m*3 14.9 C 11.3 km/h
435 08-09-2013 12:10:00 14.9 C 11.6 g/m*3 14.9 C 8.1 km/h
436 08-09-2013 12:15:00 15.1 C 11.74 g/m*3 15.1 C 9.7 km/h
437 08-09-2013 12:20:00 15.2 C 11.68 g/m*3 15.2 C 8.1 km/h
438 08-09-2013 12:25:00 15.2 C 11.81 g/m*3 15.2 C 9.7 km/h
439 08-09-2013 12:30:00 15.2 C 11.68 g/m*3 15.2 C 11.3 km/h
440 08-09-2013 12:35:00 15.2 C 11.68 g/m*3 15.2 C 12.9 km/h
441 08-09-2013 12:40:00 15.2 C 11.55 g/m*3 15.2 C 8.1 km/h
442 08-09-2013 12:45:00 15.1 C 11.48 g/m*3 15.1 C 9.7 km/h
443 08-09-2013 12:50:00 15 C 11.41 g/m*3 15 C 9.7 km/h
444 08-09-2013 12:55:00 14.9 C 11.47 g/m*3 14.9 C 9.7 km/h
445 08-09-2013 13:00:00 14.9 C 11.34 g/m*3 14.9 C 6.4 km/h
446 08-09-2013 13:05:00 14.9 C 11.47 g/m*3 14.9 C 6.4 km/h
447 08-09-2013 13:10:00 15 C 11.54 g/m*3 15 C 6.4 km/h
448 08-09-2013 13:15:00 15 C 11.54 g/m*3 15 C 11.3 km/h
449 08-09-2013 13:20:00 15.1 C 11.74 g/m*3 15.1 C 8.1 km/h
450 08-09-2013 13:25:00 15 C 11.54 g/m*3 15 C 9.7 km/h
Sensor: Nr:Datum:Temp:Abs-Feuchte:Windchill:Wind:
Aussen-T/F 451 08-09-2013 13:30:00 14.9 C 11.47 g/m*3 14.9 C 6.4 km/h
452 08-09-2013 13:35:00 14.8 C 11.4 g/m*3 14.8 C 6.4 km/h
453 08-09-2013 13:40:00 14.8 C 11.4 g/m*3 14.8 C 3.2 km/h
454 08-09-2013 13:45:00 14.8 C 11.53 g/m*3 14.8 C 0 km/h
455 08-09-2013 13:50:00 14.8 C 11.53 g/m*3 14.8 C 6.4 km/h
456 08-09-2013 13:55:00 14.8 C 11.53 g/m*3 14.8 C 6.4 km/h
457 08-09-2013 14:00:00 14.7 C 11.58 g/m*3 14.7 C 3.2 km/h
458 08-09-2013 14:05:00 14.7 C 11.71 g/m*3 14.7 C 4.8 km/h
459 08-09-2013 14:10:00 14.8 C 11.78 g/m*3 14.8 C 8.1 km/h
460 08-09-2013 14:15:00 14.9 C 11.85 g/m*3 14.9 C 1.6 km/h
461 08-09-2013 14:20:00 15 C 11.93 g/m*3 15 C 1.6 km/h
462 08-09-2013 14:25:00 14.9 C 11.73 g/m*3 14.9 C 3.2 km/h
463 08-09-2013 14:30:00 14.9 C 11.85 g/m*3 14.9 C 3.2 km/h
464 08-09-2013 14:35:00 15 C 11.93 g/m*3 15 C 1.6 km/h
465 08-09-2013 14:40:00 15.1 C 11.87 g/m*3 15.1 C 3.2 km/h
466 08-09-2013 14:45:00 15.1 C 11.87 g/m*3 15.1 C 8.1 km/h
467 08-09-2013 14:50:00 15.2 C 11.94 g/m*3 15.2 C 4.8 km/h
468 08-09-2013 14:55:00 15.3 C 12.01 g/m*3 15.3 C 4.8 km/h
469 08-09-2013 15:00:00 15.3 C 11.88 g/m*3 15.3 C 3.2 km/h
470 08-09-2013 15:05:00 15.3 C 11.88 g/m*3 15.3 C 6.4 km/h
471 08-09-2013 15:10:00 15.3 C 11.88 g/m*3 15.3 C 4.8 km/h
472 08-09-2013 15:15:00 15.3 C 11.88 g/m*3 15.3 C 3.2 km/h
473 08-09-2013 15:20:00 15.4 C 12.09 g/m*3 15.4 C 4.8 km/h
474 08-09-2013 15:25:00 15.4 C 11.96 g/m*3 15.4 C 6.4 km/h
475 08-09-2013 15:30:00 15.5 C 12.03 g/m*3 15.5 C 1.6 km/h
Sensor: Nr:Datum:Temp:Abs-Feuchte:Windchill:Wind:
Aussen-T/F 476 08-09-2013 15:35:00 15.4 C 11.82 g/m*3 15.4 C 4.8 km/h
477 08-09-2013 15:40:00 15.4 C 11.82 g/m*3 15.4 C 4.8 km/h
478 08-09-2013 15:45:00 15.4 C 11.82 g/m*3 15.4 C 4.8 km/h
479 08-09-2013 15:50:00 15.4 C 11.82 g/m*3 15.4 C 3.2 km/h
480 08-09-2013 15:55:00 15.4 C 11.82 g/m*3 15.4 C 3.2 km/h
481 08-09-2013 16:00:00 15.4 C 11.82 g/m*3 15.4 C 0 km/h
482 08-09-2013 16:05:00 15.5 C 11.9 g/m*3 15.5 C 4.8 km/h
483 08-09-2013 16:10:00 15.6 C 11.97 g/m*3 15.6 C 3.2 km/h
484 08-09-2013 16:15:00 15.6 C 12.1 g/m*3 15.6 C 4.8 km/h
485 08-09-2013 16:20:00 15.5 C 11.9 g/m*3 15.5 C 6.4 km/h
486 08-09-2013 16:25:00 15.5 C 11.9 g/m*3 15.5 C 3.2 km/h
487 08-09-2013 16:30:00 15.5 C 11.9 g/m*3 15.5 C 1.6 km/h
488 08-09-2013 16:35:00 15.6 C 11.97 g/m*3 15.6 C 8.1 km/h
489 08-09-2013 16:40:00 15.5 C 11.9 g/m*3 15.5 C 8.1 km/h
490 08-09-2013 16:45:00 15.5 C 11.9 g/m*3 15.5 C 9.7 km/h
491 08-09-2013 16:50:00 15.4 C 11.82 g/m*3 15.4 C 8.1 km/h
492 08-09-2013 16:55:00 15.4 C 11.69 g/m*3 15.4 C 6.4 km/h
493 08-09-2013 17:00:00 15.3 C 11.62 g/m*3 15.3 C 4.8 km/h
494 08-09-2013 17:05:00 15.3 C 11.62 g/m*3 15.3 C 4.8 km/h
495 08-09-2013 17:10:00 15.2 C 11.68 g/m*3 15.2 C 0 km/h
496 08-09-2013 17:15:00 15.2 C 11.81 g/m*3 15.2 C 3.2 km/h
497 08-09-2013 17:20:00 15.2 C 11.68 g/m*3 15.2 C 6.4 km/h
498 08-09-2013 17:25:00 15.1 C 11.74 g/m*3 15.1 C 0 km/h
499 08-09-2013 17:30:00 15.1 C 11.61 g/m*3 15.1 C 9.7 km/h
500 08-09-2013 17:35:00 15.1 C 11.61 g/m*3 15.1 C 8.1 km/h
Sensor: Nr:Datum:Temp:Abs-Feuchte:Windchill:Wind:
Aussen-T/F 501 08-09-2013 17:40:00 15.1 C 11.61 g/m*3 15.1 C 9.7 km/h
502 08-09-2013 17:45:00 15 C 11.54 g/m*3 15 C 6.4 km/h
503 08-09-2013 17:50:00 14.9 C 11.34 g/m*3 14.9 C 6.4 km/h
504 08-09-2013 17:55:00 14.9 C 11.34 g/m*3 14.9 C 4.8 km/h
505 08-09-2013 18:00:00 14.9 C 11.34 g/m*3 14.9 C 4.8 km/h
506 08-09-2013 18:05:00 14.8 C 11.27 g/m*3 14.8 C 8.1 km/h
507 08-09-2013 18:10:00 14.8 C 11.4 g/m*3 14.8 C 4.8 km/h
508 08-09-2013 18:15:00 14.8 C 11.27 g/m*3 14.8 C 8.1 km/h
509 08-09-2013 18:20:00 14.8 C 11.27 g/m*3 14.8 C 3.2 km/h
510 08-09-2013 18:25:00 14.8 C 11.4 g/m*3 14.8 C 1.6 km/h
511 08-09-2013 18:30:00 14.8 C 11.53 g/m*3 14.8 C 1.6 km/h
512 08-09-2013 18:35:00 14.8 C 11.53 g/m*3 14.8 C 0 km/h
513 08-09-2013 18:40:00 14.8 C 11.53 g/m*3 14.8 C 0 km/h
514 08-09-2013 18:45:00 14.8 C 11.53 g/m*3 14.8 C 1.6 km/h
515 08-09-2013 18:50:00 14.8 C 11.53 g/m*3 14.8 C 1.6 km/h
516 08-09-2013 18:55:00 14.7 C 11.46 g/m*3 14.7 C 1.6 km/h
517 08-09-2013 19:00:00 14.7 C 11.58 g/m*3 14.7 C 0 km/h
518 08-09-2013 19:05:00 14.7 C 11.71 g/m*3 14.7 C 0 km/h
519 08-09-2013 19:10:00 14.7 C 11.71 g/m*3 14.7 C 0 km/h
520 08-09-2013 19:15:00 14.7 C 11.83 g/m*3 14.7 C 0 km/h
521 08-09-2013 19:20:00 14.6 C 11.76 g/m*3 14.6 C 0 km/h
522 08-09-2013 19:25:00 14.5 C 11.69 g/m*3 14.5 C 0 km/h
523 08-09-2013 19:30:00 14.4 C 11.62 g/m*3 14.4 C 0 km/h
524 08-09-2013 19:35:00 14.4 C 11.62 g/m*3 14.4 C 0 km/h
525 08-09-2013 19:40:00 14.4 C 11.62 g/m*3 14.4 C 0 km/h
Sensor: Nr:Datum:Temp:Abs-Feuchte:Windchill:Wind:
Aussen-T/F 526 08-09-2013 19:45:00 14.3 C 11.67 g/m*3 14.3 C 0 km/h
527 08-09-2013 19:50:00 14.3 C 11.67 g/m*3 14.3 C 0 km/h
528 08-09-2013 19:55:00 14.2 C 11.6 g/m*3 14.2 C 0 km/h
529 08-09-2013 20:00:00 14.1 C 11.53 g/m*3 14.1 C 0 km/h
530 08-09-2013 20:05:00 14.1 C 11.53 g/m*3 14.1 C 0 km/h
531 08-09-2013 20:10:00 14.1 C 11.53 g/m*3 14.1 C 0 km/h
532 08-09-2013 20:15:00 13.9 C 11.39 g/m*3 13.9 C 0 km/h
533 08-09-2013 20:20:00 13.9 C 11.39 g/m*3 13.9 C 0 km/h
534 08-09-2013 20:25:00 13.9 C 11.39 g/m*3 13.9 C 0 km/h
535 08-09-2013 20:30:00 13.9 C 11.39 g/m*3 13.9 C 0 km/h
536 08-09-2013 20:35:00 13.8 C 11.32 g/m*3 13.8 C 0 km/h
537 08-09-2013 20:40:00 13.7 C 11.25 g/m*3 13.7 C 0 km/h
538 08-09-2013 20:45:00 13.7 C 11.37 g/m*3 13.7 C 0 km/h
539 08-09-2013 20:50:00 13.7 C 11.37 g/m*3 13.7 C 0 km/h
540 08-09-2013 20:55:00 13.7 C 11.37 g/m*3 13.7 C 0 km/h
541 08-09-2013 21:00:00 13.7 C 11.37 g/m*3 13.7 C 0 km/h
542 08-09-2013 21:05:00 13.7 C 11.37 g/m*3 13.7 C 0 km/h
543 08-09-2013 21:10:00 13.6 C 11.3 g/m*3 13.6 C 0 km/h
544 08-09-2013 21:15:00 13.7 C 11.37 g/m*3 13.7 C 0 km/h
545 08-09-2013 21:20:00 13.6 C 11.3 g/m*3 13.6 C 0 km/h
546 08-09-2013 21:25:00 13.6 C 11.3 g/m*3 13.6 C 0 km/h
547 08-09-2013 21:30:00 13.6 C 11.3 g/m*3 13.6 C 0 km/h
548 08-09-2013 21:35:00 13.6 C 11.3 g/m*3 13.6 C 0 km/h
549 08-09-2013 21:40:00 13.6 C 11.3 g/m*3 13.6 C 0 km/h
550 08-09-2013 21:45:00 13.6 C 11.3 g/m*3 13.6 C 0 km/h
Sensor: Nr:Datum:Temp:Abs-Feuchte:Windchill:Wind:
Aussen-T/F 551 08-09-2013 21:50:00 13.6 C 11.3 g/m*3 13.6 C 0 km/h
552 08-09-2013 21:55:00 13.6 C 11.3 g/m*3 13.6 C 0 km/h
553 08-09-2013 22:00:00 13.6 C 11.42 g/m*3 13.6 C 0 km/h
554 08-09-2013 22:05:00 13.6 C 11.42 g/m*3 13.6 C 0 km/h
555 08-09-2013 22:10:00 13.5 C 11.35 g/m*3 13.5 C 0 km/h
556 08-09-2013 22:15:00 13.5 C 11.35 g/m*3 13.5 C 0 km/h
557 08-09-2013 22:20:00 13.5 C 11.35 g/m*3 13.5 C 0 km/h
558 08-09-2013 22:25:00 13.5 C 11.35 g/m*3 13.5 C 0 km/h
559 08-09-2013 22:30:00 13.4 C 11.28 g/m*3 13.4 C 0 km/h
560 08-09-2013 22:35:00 13.4 C 11.28 g/m*3 13.4 C 0 km/h
561 08-09-2013 22:40:00 13.5 C 11.35 g/m*3 13.5 C 0 km/h
562 08-09-2013 22:45:00 13.5 C 11.35 g/m*3 13.5 C 0 km/h
563 08-09-2013 22:50:00 13.5 C 11.35 g/m*3 13.5 C 0 km/h
564 08-09-2013 22:55:00 13.5 C 11.35 g/m*3 13.5 C 0 km/h
565 08-09-2013 23:00:00 13.5 C 11.35 g/m*3 13.5 C 0 km/h
566 08-09-2013 23:05:00 13.5 C 11.35 g/m*3 13.5 C 0 km/h
567 08-09-2013 23:10:00 13.5 C 11.35 g/m*3 13.5 C 0 km/h
568 08-09-2013 23:15:00 13.5 C 11.35 g/m*3 13.5 C 0 km/h
569 08-09-2013 23:20:00 13.5 C 11.35 g/m*3 13.5 C 0 km/h
570 08-09-2013 23:25:00 13.6 C 11.42 g/m*3 13.6 C 0 km/h
571 08-09-2013 23:30:00 13.6 C 11.42 g/m*3 13.6 C 0 km/h
572 08-09-2013 23:35:00 13.6 C 11.42 g/m*3 13.6 C 0 km/h
573 08-09-2013 23:40:00 13.6 C 11.42 g/m*3 13.6 C 0 km/h
574 08-09-2013 23:45:00 13.6 C 11.42 g/m*3 13.6 C 0 km/h
575 08-09-2013 23:50:00 13.6 C 11.42 g/m*3 13.6 C 4.8 km/h
Sensor: Nr:Datum:Temp:Abs-Feuchte:Windchill:Wind:
Aussen-T/F 576 08-09-2013 23:55:00 13.6 C 11.42 g/m*3 13.6 C 3.2 km/h

Legende:
   Min
   Max


Maximal/Minimal-Werte vom 07.09.2013 - 08.09.2013

Sensor Min Max Avg
Temp
(Aussen-T/F)
13.4 °C
08-09-2013  08:40:00
22.4 °C
07-09-2013  14:35:00
16.57 °C
Abs-Feuchte
(Aussen-T/F)
11.04 g/m*3
08-09-2013  08:40:00
17.22 g/m*3
07-09-2013  15:35:00
13.13 g/m*3
Windchill
(Aussen-T/F)
13.4 C
08-09-2013  08:40:00
22.4 C
07-09-2013  14:35:00
16.55 C

Die Daten stammen von einer Davis Vantage Pro 2 Wetter-Station und werden unter Linux mit der Software wview2wettercgi und aufbereitet. Alle Angaben erfolgen ohne Gewähr für ihre Vollständigkeit oder Richtigkeit.
Kontakt: Rainer Krienke krienke@uni-koblenz.de . Meine Webseiten an der Uni Koblenz oder privat.
Version: $Revision: 0.78 $